Griston, United Kingdom
Current Conditions -  °F | °C
As of 9:50 AM on Wednesday 26 Nov 2014 (Local Time) from EGYM Reporting Station
Light Rain Light Rain  
Wind Chill: 42°   Ceiling: 2200
Heat Index: 46°   Visibility: 2.1mi
Dew Point: 45°   Wind: 8mph
Humidity: 93%   Direction: 70°ENE
Pressure: 29.88"   Gusts: NA
Location:  52.56°N, 0.86°E
Report Text: EGYM 260950Z 07007KT 3500 -RA SCT007 SCT015 BKN022 08/07 Q1012 YLO1 NOSIG
Loading
Personal Weather Stations






























Interactive Weather Map New forecast layout! Learn more

10-Day Weather Forecast

Advertisements
Track Severe Weather on mobile